ADDS METAR Data INFO
IDs: Format: Raw Decoded Include TAF

Data at: 0256 UTC 21 Jan 2018

KETH 210234Z AUTO 25004KT 10SM SCT110 02/M02 A2994 RMK AO2
KETH 210214Z AUTO 00000KT 10SM CLR 03/M02 A2993 RMK AO2
KETH 210154Z AUTO 00000KT 10SM CLR 03/M02 A2993 RMK AO2
KETH 210134Z AUTO 00000KT 10SM CLR 02/M02 A2994 RMK AO2
KETH 210117Z AUTO 00000KT 10SM CLR 03/M02 A2993 RMK AO2
KETH 210055Z AUTO 00000KT 10SM CLR 03/M02 A2993 RMK AO2
KETH 210034Z AUTO 23003KT 10SM CLR 04/M02 A2993 RMK AO2
KETH 210014Z AUTO 00000KT 10SM CLR 04/M02 A2993 RMK AO2
KETH 202354Z AUTO 00000KT 10SM CLR 04/M02 A2992 RMK AO2
KETH 202335Z AUTO 24003KT 10SM CLR 04/M02 A2992 RMK AO2
KETH 202314Z AUTO 25003KT 10SM CLR 04/M02 A2992 RMK AO2
KETH 202255Z AUTO 00000KT 10SM CLR 05/M02 A2991 RMK AO2
KETH 202234Z AUTO 28003KT 10SM CLR 06/M02 A2991 RMK AO2
KETH 202215Z AUTO 28004KT 10SM CLR 07/M02 A2991 RMK AO2
KETH 202154Z AUTO 30004KT 10SM CLR 07/M02 A2990 RMK AO2
KETH 202134Z AUTO 28005KT 10SM CLR 07/M02 A2990 RMK AO2
KETH 202114Z AUTO 29007KT 10SM CLR 08/M02 A2990 RMK AO2
KETH 202015Z AUTO 30009KT 10SM SCT090 07/M03 A2989 RMK AO2
KETH 201954Z AUTO 29005KT 10SM SCT090 07/M02 A2989 RMK AO2
KETH 201938Z AUTO 29009KT 10SM CLR 07/M02 A2989 RMK AO2
KETH 201835Z AUTO 29010G14KT 10SM CLR 07/M02 A2987 RMK AO2
KETH 201814Z AUTO 30007KT 10SM CLR 07/M01 A2988 RMK AO2
KETH 201754Z AUTO 29004KT 10SM CLR 04/M01 A2988 RMK AO2
KETH 201734Z AUTO 30005KT 10SM CLR 04/M01 A2988 RMK AO2
KETH 201713Z AUTO 27003KT 10SM CLR 04/M01 A2989 RMK AO2
KETH 201654Z AUTO 00000KT 10SM CLR 03/M02 A2990 RMK AO2
KETH 201634Z AUTO 26005KT 10SM CLR 03/M02 A2990 RMK AO2
KETH 201614Z AUTO 25004KT 10SM CLR 03/M02 A2989 RMK AO2
KETH 201554Z AUTO 26004KT 10SM CLR 02/M02 A2989 RMK AO2
KETH 201534Z AUTO 24003KT 10SM SCT075 01/M02 A2989 RMK AO2
KETH 201514Z AUTO 22004KT 10SM CLR 01/M02 A2989 RMK AO2
KETH 201454Z AUTO 23004KT 10SM CLR 01/M03 A2988 RMK AO2
KETH 201434Z AUTO 23005KT 10SM SCT120 00/M03 A2986 RMK AO2
KETH 201414Z AUTO 22005KT 10SM BKN120 00/M03 A2985 RMK AO2
KETH 201315Z AUTO 24004KT 10SM CLR M01/M03 A2983 RMK AO2
KETH 201254Z AUTO 25003KT 10SM SCT100 M01/M03 A2983 RMK AO2
KETH 201237Z AUTO 23003KT 10SM SCT100 00/M03 A2982 RMK AO2
KETH 201214Z AUTO 23003KT 10SM BKN100 BKN110 00/M03 A2982 RMK AO2
KETH 201155Z AUTO 24003KT 10SM SCT120 00/M03 A2983 RMK AO2
KETH 201134Z AUTO 25004KT 10SM SCT110 M01/M03 A2982 RMK AO2
KETH 201115Z AUTO 24004KT 10SM CLR M01/M04 A2982 RMK AO2
KETH 201015Z AUTO 23005KT 10SM CLR M02/M04 A2981 RMK AO2
KETH 200854Z AUTO 25003KT 10SM CLR M03/M05 A2979 RMK AO2
KETH 200837Z AUTO 00000KT 10SM CLR M02/M04 A2978 RMK AO2
KETH 200815Z AUTO 24004KT 10SM CLR M01/M04 A2978 RMK AO2
KETH 200754Z AUTO 24006KT 10SM CLR M01/M04 A2978 RMK AO2
KETH 200733Z AUTO 24005KT 10SM CLR M01/M03 A2977 RMK AO2
KETH 200714Z AUTO 25003KT 10SM CLR 00/M03 A2976 RMK AO2
KETH 200654Z AUTO 26003KT 10SM CLR M01/M03 A2976 RMK AO2
KETH 200634Z AUTO 25004KT 10SM CLR M01/M04 A2977 RMK AO2
KETH 200614Z AUTO 27004KT 10SM CLR M01/M03 A2976 RMK AO2
KETH 200557Z AUTO 23004KT 10SM CLR 01/M03 A2975 RMK AO2
KETH 200155Z AUTO 27003KT 10SM CLR 02/M02 A2968 RMK AO2
KETH 200134Z AUTO 27004KT 10SM CLR 02/M02 A2968 RMK AO2
KETH 200115Z AUTO 25003KT 10SM CLR 02/M02 A2967 RMK AO2
KETH 200055Z AUTO 26003KT 10SM CLR 02/M02 A2966 RMK AO2
KETH 200036Z AUTO 28004KT 10SM CLR 03/M01 A2966 RMK AO2
KETH 200015Z AUTO 28005KT 10SM CLR 03/M01 A2965 RMK AO2
KETH 192357Z AUTO 30005KT 10SM CLR 03/M01 A2964 RMK AO2
KETH 192255Z AUTO 28004KT 10SM CLR 05/M01 A2960 RMK AO2
KETH 192234Z AUTO 29006KT 10SM CLR 05/M01 A2960 RMK AO2
KETH 192216Z AUTO 30007KT 10SM CLR 06/M01 A2960 RMK AO2
KETH 192154Z AUTO 30007KT 10SM CLR 06/M01 A2959 RMK AO2
KETH 192134Z AUTO 31009KT 10SM CLR 07/M01 A2958 RMK AO2
KETH 192116Z AUTO 33007KT 10SM CLR 07/M01 A2956 RMK AO2
KETH 192056Z AUTO 30005KT 10SM CLR 07/M01 A2954 RMK AO2
KETH 192034Z AUTO 32008KT 10SM CLR 07/M02 A2953 RMK AO2
KETH 192015Z AUTO 31010KT 10SM CLR 07/M02 A2953 RMK AO2
KETH 191954Z AUTO 30008KT 10SM CLR 07/M02 A2952 RMK AO2
KETH 191935Z AUTO 31009KT 10SM CLR 07/M02 A2953 RMK AO2
KETH 191815Z AUTO 29008KT 10SM CLR 06/M01 A2954 RMK AO2
KETH 191716Z AUTO 34003KT 10SM CLR 03/M03 A2953 RMK AO2
KETH 191654Z AUTO 31005KT 10SM CLR 03/M03 A2955 RMK AO2
KETH 191635Z AUTO 29003KT 10SM CLR 02/M03 A2954 RMK AO2
KETH 191615Z AUTO 00000KT 10SM CLR 01/M03 A2953 RMK AO2
KETH 191555Z AUTO 00000KT 10SM CLR 00/M03 A2953 RMK AO2
KETH 191534Z AUTO 16004KT 10SM CLR M01/M04 A2952 RMK AO2
KETH 191514Z AUTO 00000KT 10SM CLR M02/M04 A2952 RMK AO2